Time;durP1;ratioP1;P1;durP2;ratioP2;P2;SDS_P1;SDS_P2;PMS_P1;PMS_P2;Temp;Humidity;BMP_temperature;BMP_pressure;BME280_temperature;BME280_humidity;BME280_pressure;Samples;Min_cycle;Max_cycle;Signal;HPM_P1;HPM_P2
2023/07/22 00:01:59;;;;;;;7.50;4.40;;;25.50;65.80;;;;;;6151358;27;80563;-66
2023/07/22 00:05:00;;;;;;;7.07;5.03;;;25.50;66.00;;;;;;6150267;27;80893;-65
2023/07/22 00:08:00;;;;;;;10.85;5.03;;;25.50;66.20;;;;;;6151569;27;80456;-66
2023/07/22 00:11:01;;;;;;;9.98;5.25;;;25.50;66.60;;;;;;6150142;27;80709;-63
2023/07/22 00:14:01;;;;;;;9.93;5.45;;;25.30;67.10;;;;;;6154432;27;80421;-62
2023/07/22 00:17:02;;;;;;;10.45;5.10;;;25.30;67.60;;;;;;6149780;27;81699;-63
2023/07/22 00:20:04;;;;;;;10.88;5.70;;;25.30;67.70;;;;;;6167980;27;80339;-64
2023/07/22 00:23:04;;;;;;;12.38;6.32;;;25.30;67.90;;;;;;6167026;27;80878;-63
2023/07/22 00:26:05;;;;;;;8.52;5.32;;;25.30;68.30;;;;;;6174012;27;80402;-64
2023/07/22 00:29:05;;;;;;;7.38;5.88;;;25.30;68.50;;;;;;6172502;27;80430;-61
2023/07/22 00:32:07;;;;;;;8.95;5.68;;;25.30;68.40;;;;;;6170651;27;81857;-57
2023/07/22 00:35:09;;;;;;;9.90;5.50;;;25.30;68.30;;;;;;6180355;27;81746;-59
2023/07/22 00:38:09;;;;;;;11.93;5.60;;;25.30;68.50;;;;;;6171707;27;81659;-58
2023/07/22 00:41:11;;;;;;;10.23;6.03;;;25.30;68.60;;;;;;6172798;27;82256;-58
2023/07/22 00:44:12;;;;;;;11.60;5.88;;;25.20;69.20;;;;;;6170069;27;81011;-59
2023/07/22 00:47:13;;;;;;;9.07;5.47;;;25.10;69.50;;;;;;6148018;27;83301;-58
2023/07/22 00:50:13;;;;;;;9.23;5.65;;;25.10;70.00;;;;;;6185366;27;82972;-66
2023/07/22 00:53:14;;;;;;;9.02;5.63;;;25.10;70.00;;;;;;6171558;27;80412;-66
2023/07/22 00:56:14;;;;;;;8.95;6.15;;;25.10;70.10;;;;;;6171342;27;81384;-65
2023/07/22 00:59:15;;;;;;;9.40;5.93;;;25.00;70.20;;;;;;6172967;27;80966;-63
2023/07/22 01:02:15;;;;;;;10.77;6.00;;;25.00;70.80;;;;;;6183416;27;80286;-65
2023/07/22 01:05:16;;;;;;;8.98;5.97;;;24.90;71.20;;;;;;6179851;27;82177;-66
2023/07/22 01:08:16;;;;;;;9.07;5.78;;;24.90;71.40;;;;;;6189843;27;80822;-65
2023/07/22 01:11:17;;;;;;;10.27;6.43;;;24.90;71.70;;;;;;6170274;27;80268;-64
2023/07/22 01:14:18;;;;;;;11.77;6.07;;;24.70;72.10;;;;;;6173259;27;80627;-63
2023/07/22 01:17:19;;;;;;;8.35;5.60;;;24.70;72.30;;;;;;6169617;27;83491;-64
2023/07/22 01:20:20;;;;;;;10.70;5.43;;;24.70;72.50;;;;;;6182109;27;80568;-63
2023/07/22 01:23:20;;;;;;;9.35;5.10;;;24.70;72.40;;;;;;6175445;27;83049;-63
2023/07/22 01:26:21;;;;;;;7.88;4.95;;;24.70;72.40;;;;;;6169395;27;81651;-63
2023/07/22 01:29:21;;;;;;;12.63;5.18;;;24.70;72.50;;;;;;6167505;27;81036;-62
2023/07/22 01:32:22;;;;;;;11.32;5.72;;;24.70;72.50;;;;;;6147990;27;80880;-63
2023/07/22 01:35:22;;;;;;;5.78;4.78;;;24.70;72.40;;;;;;6148715;27;81409;-64
2023/07/22 01:38:23;;;;;;;7.13;4.80;;;24.70;72.20;;;;;;6159924;27;81129;-64
2023/07/22 01:41:23;;;;;;;6.05;4.45;;;24.70;72.00;;;;;;6171906;27;80597;-63
2023/07/22 01:44:24;;;;;;;9.82;4.45;;;24.80;71.70;;;;;;6169479;27;83269;-54
2023/07/22 01:47:24;;;;;;;8.48;5.13;;;24.80;71.60;;;;;;6165780;27;81391;-51
2023/07/22 01:50:25;;;;;;;6.80;4.97;;;24.80;71.50;;;;;;6146926;27;83979;-53
2023/07/22 01:53:25;;;;;;;5.65;4.38;;;24.90;71.50;;;;;;6146160;27;82074;-53
2023/07/22 01:56:26;;;;;;;6.80;5.20;;;24.90;71.20;;;;;;6146743;27;83067;-54
2023/07/22 01:59:27;;;;;;;6.63;5.20;;;24.90;71.00;;;;;;6148970;27;81057;-49
2023/07/22 02:02:27;;;;;;;10.32;5.50;;;24.80;71.30;;;;;;6166215;27;83265;-54
2023/07/22 02:05:29;;;;;;;9.32;5.90;;;24.80;71.40;;;;;;6154186;27;82227;-50
2023/07/22 02:08:30;;;;;;;8.68;5.53;;;24.80;71.40;;;;;;6148902;27;80899;-52
2023/07/22 02:11:30;;;;;;;10.80;4.75;;;24.80;71.30;;;;;;6153469;27;83068;-53
2023/07/22 02:14:31;;;;;;;11.80;5.00;;;24.80;71.40;;;;;;6151512;27;80732;-50
2023/07/22 02:17:31;;;;;;;11.65;5.90;;;24.80;71.30;;;;;;6150759;27;81015;-55
2023/07/22 02:20:32;;;;;;;9.02;5.30;;;24.80;71.40;;;;;;6152033;27;81841;-63
2023/07/22 02:23:32;;;;;;;9.93;4.55;;;24.80;71.40;;;;;;6156582;27;80613;-64
2023/07/22 02:26:33;;;;;;;11.35;5.20;;;24.80;70.90;;;;;;6173997;27;80271;-63
2023/07/22 02:29:33;;;;;;;9.63;4.72;;;24.80;70.90;;;;;;6176343;27;80774;-63
2023/07/22 02:32:34;;;;;;;8.63;5.03;;;24.70;71.30;;;;;;6166583;27;81353;-63
2023/07/22 02:35:35;;;;;;;5.55;4.28;;;24.70;71.40;;;;;;6173966;27;83220;-62
2023/07/22 02:38:35;;;;;;;5.10;4.30;;;24.70;71.40;;;;;;6164092;27;80905;-67
2023/07/22 02:41:36;;;;;;;9.15;4.90;;;24.70;71.50;;;;;;6177787;27;81511;-64
2023/07/22 02:44:36;;;;;;;9.63;4.78;;;24.70;71.70;;;;;;6169491;27;84153;-64
2023/07/22 02:47:37;;;;;;;4.72;4.22;;;24.70;71.40;;;;;;6148582;27;82064;-66
2023/07/22 02:50:37;;;;;;;6.78;4.30;;;24.70;71.40;;;;;;6169827;27;80547;-66
2023/07/22 02:53:38;;;;;;;6.85;4.60;;;24.70;71.30;;;;;;6172232;27;83313;-66
2023/07/22 02:56:38;;;;;;;6.07;4.32;;;24.70;71.10;;;;;;6168782;27;80783;-66
2023/07/22 02:59:39;;;;;;;5.80;4.05;;;24.70;71.00;;;;;;6171427;27;80547;-54
2023/07/22 03:02:39;;;;;;;6.78;3.85;;;24.60;70.50;;;;;;6159417;27;80770;-53
2023/07/22 03:05:40;;;;;;;6.47;4.13;;;24.40;70.50;;;;;;6158137;27;80508;-53
2023/07/22 03:08:40;;;;;;;13.85;4.72;;;24.10;71.40;;;;;;6168806;27;80735;-50
2023/07/22 03:11:41;;;;;;;6.45;4.28;;;24.00;72.10;;;;;;6174045;27;80237;-55
2023/07/22 03:14:42;;;;;;;4.57;3.67;;;24.00;72.50;;;;;;6155853;27;80775;-54
2023/07/22 03:17:43;;;;;;;6.18;3.67;;;24.00;72.30;;;;;;6156498;27;81707;-58
2023/07/22 03:20:43;;;;;;;6.63;3.47;;;24.00;71.60;;;;;;6165585;27;80494;-59
2023/07/22 03:23:44;;;;;;;5.13;3.42;;;24.10;71.40;;;;;;6175150;27;80797;-57
2023/07/22 03:26:45;;;;;;;4.60;3.47;;;24.20;70.70;;;;;;6172622;27;83600;-59
2023/07/22 03:29:45;;;;;;;5.28;3.10;;;24.30;70.40;;;;;;6160926;27;83815;-59
2023/07/22 03:32:47;;;;;;;3.70;2.92;;;24.30;70.00;;;;;;6174192;27;81891;-59
2023/07/22 03:35:47;;;;;;;5.97;2.95;;;24.30;69.80;;;;;;6174121;27;81013;-56
2023/07/22 03:38:48;;;;;;;3.67;2.92;;;24.20;69.50;;;;;;6173944;27;82631;-53
2023/07/22 03:41:48;;;;;;;5.95;3.40;;;24.20;69.60;;;;;;6181446;27;80608;-52
2023/07/22 03:44:49;;;;;;;7.15;3.25;;;24.20;69.40;;;;;;6166904;27;80228;-49
2023/07/22 03:47:49;;;;;;;6.40;3.40;;;24.20;69.40;;;;;;6155525;27;81854;-52
2023/07/22 03:50:50;;;;;;;3.70;2.67;;;24.20;69.20;;;;;;6173901;27;81314;-49
2023/07/22 03:53:51;;;;;;;5.47;3.05;;;24.30;69.00;;;;;;6172887;27;80667;-52
2023/07/22 03:56:51;;;;;;;6.15;2.90;;;24.40;68.80;;;;;;6171699;27;81270;-52
2023/07/22 03:59:52;;;;;;;3.75;3.03;;;24.40;68.60;;;;;;6185511;27;83058;-49
2023/07/22 04:02:52;;;;;;;5.22;3.08;;;24.50;68.60;;;;;;6173593;27;85532;-55
2023/07/22 04:05:53;;;;;;;4.75;2.80;;;24.60;68.30;;;;;;6172812;27;80232;-51
2023/07/22 04:08:53;;;;;;;3.53;3.08;;;24.50;68.20;;;;;;6186545;27;81065;-56
2023/07/22 04:11:54;;;;;;;3.75;2.67;;;24.40;68.30;;;;;;6172269;27;81209;-62
2023/07/22 04:14:54;;;;;;;3.60;2.90;;;24.30;68.10;;;;;;6172487;27;81005;-62
2023/07/22 04:17:55;;;;;;;4.68;3.40;;;24.10;68.70;;;;;;6160619;27;80846;-60
2023/07/22 04:20:55;;;;;;;5.05;3.17;;;23.90;69.50;;;;;;6172488;27;83224;-62
2023/07/22 04:23:56;;;;;;;3.33;2.72;;;23.60;70.60;;;;;;6166597;27;81853;-64
2023/07/22 04:26:59;;;;;;;3.55;2.65;;;23.50;71.40;;;;;;6174573;27;80813;-63
2023/07/22 04:30:00;;;;;;;3.70;2.70;;;23.50;71.90;;;;;;6179167;27;82131;-58
2023/07/22 04:33:01;;;;;;;4.95;2.72;;;23.20;73.00;;;;;;6180583;27;80369;-59
2023/07/22 04:36:01;;;;;;;3.80;2.92;;;23.20;73.70;;;;;;6170133;27;80385;-60
2023/07/22 04:39:04;;;;;;;6.78;3.38;;;23.10;74.40;;;;;;6168602;27;83709;-59
2023/07/22 04:42:05;;;;;;;5.93;3.35;;;23.20;74.90;;;;;;6172671;27;80087;-59
2023/07/22 04:45:06;;;;;;;4.75;3.10;;;23.30;74.50;;;;;;6160294;27;80204;-59
2023/07/22 04:48:06;;;;;;;5.30;3.13;;;23.50;74.20;;;;;;6167722;27;81499;-60
2023/07/22 04:51:07;;;;;;;6.38;2.95;;;23.70;73.10;;;;;;6171302;27;80671;-58
2023/07/22 04:54:07;;;;;;;15.02;3.55;;;24.00;72.30;;;;;;6175062;27;80726;-59
2023/07/22 04:57:08;;;;;;;5.50;2.78;;;24.20;71.40;;;;;;6169466;27;80649;-58
2023/07/22 05:00:16;;;;;;;4.40;2.97;;;24.40;70.80;;;;;;6169848;27;80572;-58
2023/07/22 05:03:16;;;;;;;3.85;2.75;;;24.50;70.20;;;;;;6171528;27;85595;-59
2023/07/22 05:06:17;;;;;;;3.72;2.78;;;24.60;70.00;;;;;;6180744;27;80917;-64
2023/07/22 05:09:17;;;;;;;6.05;2.88;;;24.70;69.60;;;;;;6171706;27;80506;-63
2023/07/22 05:12:18;;;;;;;4.72;2.78;;;24.80;69.50;;;;;;6169902;27;80591;-63
2023/07/22 05:15:18;;;;;;;8.98;2.95;;;24.90;69.30;;;;;;6170033;27;80952;-63
2023/07/22 05:18:19;;;;;;;9.55;2.70;;;24.90;69.00;;;;;;6171252;27;80599;-63
2023/07/22 05:21:19;;;;;;;6.32;2.85;;;25.00;69.00;;;;;;6167946;27;84549;-62
2023/07/22 05:24:21;;;;;;;5.93;3.42;;;25.00;68.80;;;;;;6169097;27;81337;-57
2023/07/22 05:27:21;;;;;;;9.60;3.75;;;25.00;68.80;;;;;;6150808;27;88833;-57
2023/07/22 05:30:22;;;;;;;8.38;4.30;;;24.90;69.40;;;;;;6157725;27;85458;-61
2023/07/22 05:33:22;;;;;;;5.90;3.80;;;24.70;70.00;;;;;;6153437;27;81289;-61
2023/07/22 05:36:23;;;;;;;10.02;4.93;;;24.70;70.70;;;;;;6151915;27;82771;-60
2023/07/22 05:39:23;;;;;;;12.13;5.32;;;24.60;71.30;;;;;;6166378;27;80417;-63
2023/07/22 05:42:24;;;;;;;9.40;4.30;;;24.60;71.90;;;;;;6165675;27;80813;-59
2023/07/22 05:45:24;;;;;;;6.70;4.63;;;24.50;72.70;;;;;;6162197;27;81430;-59
2023/07/22 05:48:25;;;;;;;5.30;3.90;;;24.40;73.30;;;;;;6186427;27;81374;-58
2023/07/22 05:51:25;;;;;;;14.30;4.88;;;24.60;73.00;;;;;;6180135;27;82290;-60
2023/07/22 05:54:26;;;;;;;9.52;4.53;;;24.60;72.20;;;;;;6181016;27;80373;-59
2023/07/22 05:57:26;;;;;;;7.07;4.95;;;24.60;73.30;;;;;;6174837;27;81484;-59
2023/07/22 06:00:27;;;;;;;9.02;5.95;;;24.60;73.10;;;;;;6167784;27;80748;-59
2023/07/22 06:03:28;;;;;;;10.68;5.63;;;24.60;72.70;;;;;;6171772;27;80836;-60
2023/07/22 06:06:28;;;;;;;9.30;5.05;;;24.60;72.70;;;;;;6175648;27;83348;-62
2023/07/22 06:09:29;;;;;;;6.97;4.95;;;24.60;72.60;;;;;;6176904;27;80678;-63
2023/07/22 06:12:29;;;;;;;5.85;4.63;;;24.70;72.20;;;;;;6176998;27;81432;-60
2023/07/22 06:15:30;;;;;;;8.23;4.93;;;24.70;71.60;;;;;;6173770;27;83000;-62
2023/07/22 06:18:31;;;;;;;6.65;5.30;;;24.80;71.30;;;;;;6172623;27;80115;-62
2023/07/22 06:21:31;;;;;;;7.97;5.30;;;24.60;71.80;;;;;;6161170;27;80902;-58
2023/07/22 06:24:32;;;;;;;7.90;5.50;;;24.60;71.90;;;;;;6174460;27;80512;-58
2023/07/22 06:27:32;;;;;;;9.40;5.65;;;24.70;71.50;;;;;;6173836;27;80874;-58
2023/07/22 06:30:33;;;;;;;16.35;5.30;;;24.60;71.30;;;;;;6178680;27;80318;-57
2023/07/22 06:33:33;;;;;;;8.63;5.85;;;24.70;72.00;;;;;;6160493;27;81189;-54
2023/07/22 06:36:34;;;;;;;7.78;5.35;;;24.60;71.40;;;;;;6173161;27;83566;-61
2023/07/22 06:39:35;;;;;;;13.30;6.03;;;24.60;70.60;;;;;;6172511;27;80836;-51
2023/07/22 06:42:35;;;;;;;9.65;5.70;;;24.40;72.00;;;;;;6166333;27;80324;-51
2023/07/22 06:45:36;;;;;;;11.60;5.95;;;24.40;72.10;;;;;;6169903;27;83321;-54
2023/07/22 06:48:37;;;;;;;9.18;6.55;;;24.50;72.50;;;;;;6169742;27;82109;-55
2023/07/22 06:51:37;;;;;;;7.18;5.30;;;24.50;71.20;;;;;;6171888;27;80641;-55
2023/07/22 06:54:38;;;;;;;8.77;5.85;;;24.40;72.20;;;;;;6161942;27;80814;-48
2023/07/22 06:57:38;;;;;;;7.30;5.30;;;24.40;72.40;;;;;;6160130;27;82998;-60
2023/07/22 07:00:39;;;;;;;10.75;6.63;;;24.60;71.30;;;;;;6162977;27;81007;-63
2023/07/22 07:03:39;;;;;;;10.25;6.90;;;24.60;72.10;;;;;;6173284;27;80910;-63
2023/07/22 07:06:40;;;;;;;11.50;6.40;;;24.60;69.80;;;;;;6175397;27;80295;-62
2023/07/22 07:09:41;;;;;;;13.95;6.35;;;24.60;70.60;;;;;;6175680;27;82318;-65
2023/07/22 07:12:41;;;;;;;8.27;6.75;;;24.60;70.00;;;;;;6153883;27;80576;-61
2023/07/22 07:15:42;;;;;;;11.27;6.25;;;24.60;69.90;;;;;;6160232;27;84678;-55
2023/07/22 07:18:42;;;;;;;7.97;6.68;;;24.60;70.00;;;;;;6163938;27;80430;-51
2023/07/22 07:21:43;;;;;;;9.65;6.07;;;24.80;69.70;;;;;;6170246;27;83172;-52
2023/07/22 07:24:43;;;;;;;13.90;6.63;;;24.90;68.70;;;;;;6169524;27;80853;-54
2023/07/22 07:27:44;;;;;;;8.35;6.20;;;24.80;67.70;;;;;;6168389;27;80623;-53
2023/07/22 07:30:45;;;;;;;12.07;6.60;;;24.90;68.20;;;;;;6169717;27;80469;-50
2023/07/22 07:33:45;;;;;;;7.40;6.03;;;24.80;68.00;;;;;;6165670;27;83252;-51
2023/07/22 07:36:46;;;;;;;8.73;5.97;;;24.90;68.00;;;;;;6174518;27;80594;-48
2023/07/22 07:39:46;;;;;;;9.75;6.35;;;25.00;68.00;;;;;;6174368;27;80986;-49
2023/07/22 07:42:47;;;;;;;9.00;5.53;;;25.00;67.30;;;;;;6169612;27;80719;-50
2023/07/22 07:45:47;;;;;;;10.43;5.68;;;25.10;68.00;;;;;;6158644;27;80820;-54
2023/07/22 07:48:48;;;;;;;8.10;5.75;;;25.10;67.60;;;;;;6174358;27;80237;-52
2023/07/22 07:51:48;;;;;;;9.20;5.80;;;25.10;66.80;;;;;;6176849;27;80462;-53
2023/07/22 07:54:51;;;;;;;8.75;5.40;;;25.00;66.10;;;;;;6176611;27;81001;-53
2023/07/22 07:57:52;;;;;;;9.68;4.35;;;25.00;65.90;;;;;;6170694;27;82738;-56
2023/07/22 08:00:52;;;;;;;6.80;4.28;;;25.10;64.30;;;;;;6168874;27;80514;-57
2023/07/22 08:03:54;;;;;;;8.07;4.43;;;25.10;63.60;;;;;;6172444;27;81140;-56
2023/07/22 08:06:54;;;;;;;9.32;5.20;;;25.00;63.10;;;;;;6171296;27;80533;-55
2023/07/22 08:09:57;;;;;;;9.43;3.50;;;24.80;62.80;;;;;;6173868;27;81384;-54
2023/07/22 08:12:57;;;;;;;6.38;3.95;;;24.90;63.60;;;;;;6172794;27;80566;-55
2023/07/22 08:15:58;;;;;;;7.38;4.32;;;24.90;63.30;;;;;;6170140;27;81758;-51
2023/07/22 08:18:58;;;;;;;11.25;4.40;;;25.00;63.60;;;;;;6173714;27;81078;-53
2023/07/22 08:21:59;;;;;;;3.55;3.20;;;25.00;62.00;;;;;;6173232;27;80383;-54
2023/07/22 08:24:59;;;;;;;3.50;3.05;;;24.90;60.90;;;;;;6172829;27;86181;-52
2023/07/22 08:28:00;;;;;;;9.88;3.20;;;24.80;62.30;;;;;;6178323;27;80582;-63
2023/07/22 08:31:00;;;;;;;11.93;3.42;;;24.80;62.50;;;;;;6175436;27;81202;-67
2023/07/22 08:34:01;;;;;;;7.38;3.67;;;24.70;62.20;;;;;;6170200;27;80333;-64
2023/07/22 08:37:02;;;;;;;5.70;3.42;;;24.90;62.40;;;;;;6183694;27;81233;-60
2023/07/22 08:40:02;;;;;;;6.80;3.28;;;24.90;62.00;;;;;;6162863;27;80453;-62
2023/07/22 08:43:03;;;;;;;13.93;3.33;;;25.00;61.70;;;;;;6172627;27;80402;-62
2023/07/22 08:46:03;;;;;;;4.05;2.90;;;24.90;60.90;;;;;;6171211;27;80530;-66
2023/07/22 08:49:04;;;;;;;6.72;3.05;;;24.80;61.40;;;;;;6173120;27;81043;-63
2023/07/22 08:52:05;;;;;;;9.93;3.17;;;24.90;61.50;;;;;;6168856;27;80506;-65
2023/07/22 08:55:05;;;;;;;7.03;3.03;;;25.00;61.10;;;;;;6176054;27;80661;-66
2023/07/22 08:58:06;;;;;;;4.65;2.72;;;25.00;61.00;;;;;;6175959;27;82174;-65
2023/07/22 09:01:06;;;;;;;3.38;2.80;;;25.10;60.90;;;;;;6165128;27;81154;-66
2023/07/22 09:04:07;;;;;;;4.40;3.03;;;25.10;61.10;;;;;;6170178;27;80491;-65
2023/07/22 09:07:07;;;;;;;5.90;3.28;;;24.90;60.40;;;;;;6171408;27;84823;-58
2023/07/22 09:10:08;;;;;;;6.95;3.53;;;24.90;61.30;;;;;;6172322;27;81457;-59
2023/07/22 09:13:08;;;;;;;10.85;3.40;;;24.90;61.10;;;;;;6175040;27;80057;-58
2023/07/22 09:16:09;;;;;;;7.50;3.38;;;24.80;61.40;;;;;;6176817;27;81619;-58
2023/07/22 09:19:10;;;;;;;10.52;4.22;;;25.10;62.00;;;;;;6169296;27;80406;-55
2023/07/22 09:22:10;;;;;;;4.25;3.00;;;25.00;61.00;;;;;;6171775;27;81143;-57
2023/07/22 09:25:11;;;;;;;9.68;3.72;;;24.80;61.90;;;;;;6170012;27;82601;-57
2023/07/22 09:28:11;;;;;;;7.03;3.22;;;24.90;62.80;;;;;;6173511;27;80583;-56
2023/07/22 09:31:12;;;;;;;14.27;5.43;;;25.00;62.50;;;;;;6172794;27;80425;-56
2023/07/22 09:34:12;;;;;;;17.92;5.53;;;25.10;65.80;;;;;;6171680;27;80602;-55
2023/07/22 09:37:13;;;;;;;12.55;3.70;;;25.20;67.60;;;;;;6172193;27;80524;-54
2023/07/22 09:40:13;;;;;;;12.98;4.25;;;25.20;64.10;;;;;;6171464;27;81923;-56
2023/07/22 09:43:14;;;;;;;8.65;4.35;;;25.20;64.00;;;;;;6148759;27;85490;-55
2023/07/22 09:46:14;;;;;;;12.68;6.25;;;25.30;64.00;;;;;;6166844;27;80498;-55
2023/07/22 09:49:15;;;;;;;9.50;4.47;;;25.40;68.10;;;;;;6163612;27;82947;-56
2023/07/22 09:52:16;;;;;;;9.57;3.67;;;25.50;66.30;;;;;;6157029;27;84497;-57
2023/07/22 09:55:17;;;;;;;7.70;3.20;;;25.50;63.40;;;;;;6155937;27;80977;-55
2023/07/22 09:58:18;;;;;;;7.25;2.97;;;25.50;62.20;;;;;;6151012;27;80598;-56
2023/07/22 10:01:19;;;;;;;7.43;3.55;;;25.50;60.90;;;;;;6084490;27;85410;-55
2023/07/22 10:04:19;;;;;;;9.18;2.80;;;25.30;59.40;;;;;;6160556;27;81525;-55
2023/07/22 10:07:20;;;;;;;8.45;2.33;;;25.30;57.80;;;;;;6151265;27;80187;-58
2023/07/22 10:10:20;;;;;;;8.40;2.33;;;25.30;58.40;;;;;;6156422;27;81431;-58
2023/07/22 10:13:21;;;;;;;8.02;2.72;;;25.30;57.60;;;;;;6146370;27;80926;-59
2023/07/22 10:16:21;;;;;;;6.00;2.60;;;25.30;58.10;;;;;;6138391;27;82491;-60
2023/07/22 10:19:23;;;;;;;6.00;2.17;;;25.20;58.20;;;;;;6142682;27;80694;-52
2023/07/22 10:22:24;;;;;;;3.60;2.70;;;25.30;58.30;;;;;;6151546;27;81289;-57
2023/07/22 10:25:24;;;;;;;3.47;2.20;;;25.40;59.40;;;;;;6159708;27;82328;-55
2023/07/22 10:28:25;;;;;;;2.40;2.05;;;25.40;58.20;;;;;;6184694;27;80401;-56
2023/07/22 10:31:25;;;;;;;2.72;2.15;;;25.40;57.70;;;;;;6168245;27;80891;-57
2023/07/22 10:34:26;;;;;;;5.57;2.13;;;25.50;57.70;;;;;;6174024;27;80493;-56
2023/07/22 10:37:26;;;;;;;6.18;2.60;;;25.50;57.70;;;;;;6184657;27;80175;-54
2023/07/22 10:40:27;;;;;;;2.92;2.08;;;25.60;57.80;;;;;;6180143;27;81840;-57
2023/07/22 10:43:28;;;;;;;2.90;2.00;;;25.70;56.50;;;;;;6176298;27;80319;-57
2023/07/22 10:46:28;;;;;;;5.30;2.17;;;25.70;56.10;;;;;;6155470;27;85055;-57
2023/07/22 10:49:29;;;;;;;4.32;2.40;;;25.70;55.50;;;;;;6175503;27;80805;-57
2023/07/22 10:52:29;;;;;;;2.13;1.88;;;25.70;55.10;;;;;;6172727;27;81113;-57
2023/07/22 10:55:30;;;;;;;3.22;2.30;;;25.80;53.70;;;;;;6175950;27;81134;-64
2023/07/22 10:58:30;;;;;;;4.00;2.80;;;25.70;53.10;;;;;;6170580;27;83063;-72
2023/07/22 11:01:31;;;;;;;4.63;2.22;;;25.60;52.90;;;;;;6180503;27;80697;-66
2023/07/22 11:04:32;;;;;;;3.13;2.15;;;25.60;53.30;;;;;;6179352;27;80848;-60
2023/07/22 11:07:32;;;;;;;3.17;1.90;;;25.70;54.50;;;;;;6169646;27;80635;-64
2023/07/22 11:10:33;;;;;;;8.75;2.40;;;25.70;54.50;;;;;;6170759;27;88639;-62
2023/07/22 11:13:33;;;;;;;3.25;2.30;;;25.70;54.00;;;;;;6162023;27;81369;-64
2023/07/22 11:16:34;;;;;;;3.67;2.30;;;25.80;54.20;;;;;;6182919;27;80598;-64
2023/07/22 11:19:34;;;;;;;6.28;2.45;;;25.80;53.80;;;;;;6175654;27;81207;-63
2023/07/22 11:22:35;;;;;;;3.60;1.70;;;25.80;53.40;;;;;;6182064;27;81025;-64
2023/07/22 11:25:35;;;;;;;3.70;2.03;;;25.80;53.10;;;;;;6173696;27;80796;-64
2023/07/22 11:28:36;;;;;;;3.50;2.38;;;25.70;53.40;;;;;;6179784;27;80203;-65
2023/07/22 11:31:36;;;;;;;4.65;2.10;;;25.80;54.10;;;;;;6175400;27;81546;-64
2023/07/22 11:34:37;;;;;;;2.30;1.95;;;25.80;53.10;;;;;;6174354;27;81773;-65
2023/07/22 11:37:37;;;;;;;4.40;2.05;;;25.80;53.00;;;;;;6174003;27;80284;-65
2023/07/22 11:40:38;;;;;;;4.18;2.28;;;25.80;52.10;;;;;;6164397;27;80254;-65
2023/07/22 11:43:38;;;;;;;4.70;1.92;;;25.70;51.20;;;;;;6165402;27;80663;-67
2023/07/22 11:46:39;;;;;;;3.72;1.63;;;25.70;50.70;;;;;;6144239;27;83425;-67
2023/07/22 11:49:40;;;;;;;3.30;2.00;;;25.70;51.00;;;;;;6156702;27;80917;-63
2023/07/22 11:52:40;;;;;;;6.03;2.05;;;25.80;52.00;;;;;;6169878;27;85350;-60
2023/07/22 11:55:41;;;;;;;2.83;1.88;;;25.90;53.10;;;;;;6164494;27;82947;-63
2023/07/22 11:58:41;;;;;;;3.90;2.28;;;25.90;53.00;;;;;;6175193;27;80087;-62
2023/07/22 12:01:42;;;;;;;2.00;1.80;;;25.90;52.90;;;;;;6182838;27;80878;-63
2023/07/22 12:04:42;;;;;;;2.97;2.13;;;26.00;53.80;;;;;;6170878;27;80401;-62
2023/07/22 12:07:43;;;;;;;2.58;1.70;;;26.00;55.00;;;;;;6169201;27;81003;-61
2023/07/22 12:10:43;;;;;;;5.07;2.63;;;26.00;54.00;;;;;;6173525;27;81819;-61
2023/07/22 12:13:50;;;;;;;2.42;2.20;;;26.00;54.00;;;;;;6170063;27;79976;-64
2023/07/22 12:16:50;;;;;;;3.30;2.05;;;25.90;53.60;;;;;;6174765;27;81476;-62
2023/07/22 12:19:51;;;;;;;2.92;1.98;;;25.90;52.30;;;;;;6173235;27;80800;-62
2023/07/22 12:22:51;;;;;;;2.75;2.22;;;25.90;53.20;;;;;;6173779;27;81061;-64
2023/07/22 12:25:52;;;;;;;3.20;2.20;;;26.00;53.30;;;;;;6172776;27;81706;-63
2023/07/22 12:28:52;;;;;;;3.25;2.22;;;26.00;53.60;;;;;;6174801;27;80689;-55
2023/07/22 12:31:53;;;;;;;6.88;2.42;;;25.90;52.90;;;;;;6173569;27;80471;-55
2023/07/22 12:34:53;;;;;;;4.90;2.25;;;25.90;52.40;;;;;;6164855;27;81147;-54
2023/07/22 12:37:54;;;;;;;5.63;2.17;;;25.90;52.90;;;;;;6170199;27;80267;-55
2023/07/22 12:40:55;;;;;;;4.95;2.55;;;25.90;53.60;;;;;;6168174;27;86461;-56
2023/07/22 12:43:55;;;;;;;2.97;2.10;;;26.00;54.80;;;;;;6173573;27;80314;-58
2023/07/22 12:46:56;;;;;;;5.53;2.33;;;26.00;54.10;;;;;;6174679;27;80476;-66
2023/07/22 12:49:56;;;;;;;3.42;2.13;;;26.00;54.10;;;;;;6151666;27;83549;-67
2023/07/22 12:52:57;;;;;;;4.90;2.25;;;26.00;53.70;;;;;;6153719;27;82863;-67
2023/07/22 12:55:57;;;;;;;8.40;2.17;;;26.00;53.90;;;;;;6155364;27;82037;-66
2023/07/22 12:58:58;;;;;;;5.50;2.45;;;26.00;54.00;;;;;;6151308;27;81263;-66
2023/07/22 13:01:59;;;;;;;9.43;4.10;;;26.10;54.50;;;;;;6154856;27;81400;-69
2023/07/22 13:04:59;;;;;;;33.10;11.27;;;26.10;54.60;;;;;;6153523;27;82985;-66
2023/07/22 13:08:01;;;;;;;58.08;15.00;;;26.10;56.20;;;;;;6149232;27;83907;-66
2023/07/22 13:11:01;;;;;;;60.53;19.75;;;26.10;56.20;;;;;;6150978;27;84273;-63
2023/07/22 13:14:02;;;;;;;59.28;19.23;;;26.20;56.40;;;;;;6150883;27;84004;-67
2023/07/22 13:17:03;;;;;;;37.65;14.25;;;26.20;56.10;;;;;;6147428;27;84047;-67
2023/07/22 13:20:07;;;;;;;36.58;11.30;;;26.30;55.40;;;;;;6149137;27;84258;-65
2023/07/22 13:23:07;;;;;;;17.85;6.90;;;26.30;55.20;;;;;;6150339;27;84291;-61
2023/07/22 13:26:07;;;;;;;17.92;5.75;;;26.20;53.50;;;;;;6154106;27;82716;-62
2023/07/22 13:29:08;;;;;;;13.68;4.90;;;26.30;54.10;;;;;;6146875;27;83551;-62
2023/07/22 13:32:09;;;;;;;9.95;4.28;;;26.30;53.50;;;;;;6154282;27;81614;-63
2023/07/22 13:35:10;;;;;;;6.78;3.70;;;26.30;53.10;;;;;;6153977;27;81440;-64
2023/07/22 13:38:10;;;;;;;4.65;2.72;;;26.30;51.60;;;;;;6148801;27;81229;-63
2023/07/22 13:41:11;;;;;;;7.35;3.20;;;26.30;51.10;;;;;;6152816;27;81511;-63
2023/07/22 13:44:11;;;;;;;6.75;2.90;;;26.30;52.30;;;;;;6149937;27;80930;-63
2023/07/22 13:47:12;;;;;;;7.68;2.92;;;26.30;51.50;;;;;;6158098;27;81062;-63
2023/07/22 13:50:13;;;;;;;4.68;2.80;;;26.20;51.50;;;;;;6178217;27;80656;-60
2023/07/22 13:53:13;;;;;;;5.07;2.88;;;26.30;52.00;;;;;;6166087;27;80943;-63
2023/07/22 13:56:14;;;;;;;4.68;2.63;;;26.30;51.80;;;;;;6168393;27;80412;-64
2023/07/22 13:59:14;;;;;;;4.50;2.75;;;26.30;52.20;;;;;;6141701;27;84740;-63
2023/07/22 14:02:15;;;;;;;5.80;2.65;;;26.20;51.70;;;;;;6139100;27;83353;-63
2023/07/22 14:05:15;;;;;;;3.72;2.30;;;26.20;51.70;;;;;;6170678;27;81320;-62
2023/07/22 14:08:16;;;;;;;5.50;2.67;;;26.30;52.40;;;;;;6174808;27;80636;-61
2023/07/22 14:11:17;;;;;;;6.63;2.67;;;26.30;51.90;;;;;;6173055;27;82777;-63
2023/07/22 14:14:18;;;;;;;5.47;2.53;;;26.30;51.60;;;;;;6177194;27;80866;-62
2023/07/22 14:17:18;;;;;;;6.43;2.67;;;26.20;49.80;;;;;;6173508;27;81532;-57
2023/07/22 14:20:19;;;;;;;4.18;2.38;;;26.20;49.60;;;;;;6175420;27;80907;-58
2023/07/22 14:23:20;;;;;;;5.18;2.33;;;26.20;49.50;;;;;;6182760;27;82514;-58
2023/07/22 14:26:20;;;;;;;3.53;2.10;;;26.20;49.90;;;;;;6176352;27;80741;-59
2023/07/22 14:29:21;;;;;;;2.72;2.22;;;26.20;49.50;;;;;;6175595;27;80366;-58
2023/07/22 14:32:21;;;;;;;6.05;2.60;;;26.20;50.10;;;;;;6170474;27;81215;-57
2023/07/22 14:35:22;;;;;;;4.53;2.70;;;26.20;50.50;;;;;;6176738;27;80652;-58
2023/07/22 14:38:22;;;;;;;2.78;2.05;;;26.10;49.60;;;;;;6175148;27;81626;-58
2023/07/22 14:41:23;;;;;;;5.85;2.60;;;26.10;49.90;;;;;;6180504;27;81109;-57
2023/07/22 14:44:23;;;;;;;2.85;2.13;;;26.20;50.90;;;;;;6174071;27;81861;-57
2023/07/22 14:47:25;;;;;;;2.40;2.20;;;26.20;50.90;;;;;;6174462;27;80360;-57
2023/07/22 14:50:25;;;;;;;5.63;2.15;;;26.20;50.50;;;;;;6170791;27;81688;-57
2023/07/22 14:53:26;;;;;;;5.05;2.35;;;26.10;50.50;;;;;;6172291;27;80354;-57
2023/07/22 14:56:26;;;;;;;6.88;2.55;;;26.20;50.50;;;;;;6186773;27;80636;-58
2023/07/22 14:59:27;;;;;;;4.43;2.22;;;26.20;50.50;;;;;;6175067;27;80512;-55
2023/07/22 15:02:27;;;;;;;4.53;2.53;;;26.10;49.70;;;;;;6130412;27;84572;-59
2023/07/22 15:05:28;;;;;;;4.18;2.58;;;26.10;50.60;;;;;;6148126;27;83237;-58
2023/07/22 15:08:28;;;;;;;6.97;2.60;;;26.10;50.50;;;;;;6167907;27;83437;-59
2023/07/22 15:11:29;;;;;;;6.15;2.47;;;26.10;50.10;;;;;;6161596;27;80644;-59
2023/07/22 15:14:30;;;;;;;3.92;2.40;;;26.10;50.20;;;;;;6154595;27;80372;-60
2023/07/22 15:17:32;;;;;;;5.47;2.03;;;26.10;49.80;;;;;;6162179;27;80562;-60
2023/07/22 15:20:32;;;;;;;6.55;2.63;;;26.00;50.00;;;;;;6168860;27;80547;-59
2023/07/22 15:23:33;;;;;;;2.75;2.30;;;26.10;50.20;;;;;;6173213;27;83294;-59
2023/07/22 15:26:33;;;;;;;4.45;2.40;;;26.20;49.90;;;;;;6171558;27;85258;-60
2023/07/22 15:29:34;;;;;;;3.40;2.35;;;26.10;50.00;;;;;;6172404;27;80653;-60
2023/07/22 15:32:34;;;;;;;6.35;2.13;;;26.10;50.10;;;;;;6168705;27;80894;-60
2023/07/22 15:35:35;;;;;;;7.80;2.30;;;26.10;49.60;;;;;;6166856;27;81970;-58
2023/07/22 15:38:35;;;;;;;5.43;2.50;;;26.10;49.30;;;;;;6177520;27;80399;-60